Time;durP1;ratioP1;P1;durP2;ratioP2;P2;SDS_P1;SDS_P2;PMS_P1;PMS_P2;Temp;Humidity;BMP_temperature;BMP_pressure;BME280_temperature;BME280_humidity;BME280_pressure;Samples;Min_cycle;Max_cycle;Signal;HPM_P1;HPM_P2
2021/06/25 00:00:19;;;;;;;10.05;8.02;;;;;;;19.90;54.66;100085.44;5073659;28;20052;-88
2021/06/25 00:02:45;;;;;;;10.52;8.65;;;;;;;19.91;54.89;100078.25;5071698;28;20052;-87
2021/06/25 00:05:12;;;;;;;12.40;8.55;;;;;;;19.89;54.58;100078.41;5073190;28;20459;-84
2021/06/25 00:07:39;;;;;;;9.95;8.38;;;;;;;19.88;54.46;100082.06;5073513;28;20575;-87
2021/06/25 00:10:07;;;;;;;11.55;8.40;;;;;;;19.86;54.38;100081.38;5072258;28;20048;-86
2021/06/25 00:12:34;;;;;;;9.82;7.97;;;;;;;19.85;54.55;100087.69;5073282;28;20072;-88
2021/06/25 00:15:01;;;;;;;10.85;8.70;;;;;;;19.84;54.09;100086.00;5072828;28;20063;-87
2021/06/25 00:17:28;;;;;;;10.88;8.07;;;;;;;19.82;53.95;100093.31;5073077;28;20059;-88
2021/06/25 00:19:54;;;;;;;10.23;7.50;;;;;;;19.79;54.15;100088.25;5072710;28;20064;-86
2021/06/25 00:22:21;;;;;;;8.98;8.07;;;;;;;19.75;54.01;100087.69;5072768;28;20431;-86
2021/06/25 00:24:47;;;;;;;10.60;7.70;;;;;;;19.73;54.18;100083.47;5071350;28;20056;-85
2021/06/25 00:27:14;;;;;;;12.73;8.02;;;;;;;19.69;53.79;100076.72;5072660;28;20048;-85
2021/06/25 00:29:40;;;;;;;10.82;8.38;;;;;;;19.66;53.96;100080.50;5072702;28;20472;-87
2021/06/25 00:32:08;;;;;;;9.32;8.32;;;;;;;19.60;54.01;100081.91;5071725;28;20452;-84
2021/06/25 00:34:35;;;;;;;10.82;8.02;;;;;;;19.55;53.57;100078.78;5072560;28;20059;-87
2021/06/25 00:37:01;;;;;;;13.07;7.63;;;;;;;19.50;54.00;100059.69;5072511;28;20048;-84
2021/06/25 00:39:28;;;;;;;9.55;8.40;;;;;;;19.45;54.15;100062.78;5071369;28;20067;-88
2021/06/25 00:41:55;;;;;;;9.45;8.50;;;;;;;19.39;53.98;100058.84;5072281;28;20062;-87
2021/06/25 00:44:21;;;;;;;10.00;8.43;;;;;;;19.34;54.26;100054.88;5070998;28;20506;-85
2021/06/25 00:46:48;;;;;;;9.82;8.15;;;;;;;19.31;54.50;100063.16;5072241;28;20044;-84
2021/06/25 00:49:16;;;;;;;10.32;9.02;;;;;;;19.28;54.67;100056.28;5072561;28;20059;-85
2021/06/25 00:51:43;;;;;;;13.63;8.82;;;;;;;19.26;54.50;100058.25;5072362;28;20394;-86
2021/06/25 00:54:11;;;;;;;9.27;8.38;;;;;;;19.23;54.51;100055.84;5070975;28;20052;-85
2021/06/25 00:56:38;;;;;;;11.77;8.13;;;;;;;19.22;55.09;100054.97;5072142;28;20052;-84
2021/06/25 00:59:05;;;;;;;11.70;8.13;;;;;;;19.21;55.17;100052.47;5072568;28;20061;-86
2021/06/25 01:01:32;;;;;;;10.38;8.68;;;;;;;19.23;55.29;100061.19;5071228;28;20052;-86
2021/06/25 01:03:59;;;;;;;9.85;8.85;;;;;;;19.23;55.01;100058.50;5070687;28;20044;-87
2021/06/25 01:06:28;;;;;;;9.65;7.82;;;;;;;19.23;55.01;100059.38;5072430;28;20048;-85
2021/06/25 01:08:56;;;;;;;8.23;7.43;;;;;;;19.26;54.82;100055.56;5071776;28;20044;-84
2021/06/25 01:11:23;;;;;;;11.25;7.82;;;;;;;19.26;54.64;100050.25;5071082;28;20048;-88
2021/06/25 01:13:50;;;;;;;11.48;8.63;;;;;;;19.27;54.68;100050.09;5070493;28;20044;-85
2021/06/25 01:16:17;;;;;;;11.48;8.93;;;;;;;19.26;54.90;100055.56;5071550;28;20048;-87
2021/06/25 01:18:44;;;;;;;9.15;7.97;;;;;;;19.26;54.91;100044.91;5072155;28;20056;-88
2021/06/25 01:21:10;;;;;;;11.02;9.43;;;;;;;19.25;55.32;100049.38;5071027;28;20041;-85
2021/06/25 01:23:42;;;;;;;9.65;7.43;;;;;;;19.25;55.51;100051.22;5070889;28;20483;-87
2021/06/25 01:26:10;;;;;;;11.98;8.65;;;;;;;19.29;55.70;100063.31;5071768;28;20517;-85
2021/06/25 01:28:37;;;;;;;9.68;8.63;;;;;;;19.29;55.67;100057.97;5070796;28;20060;-87
2021/06/25 01:31:05;;;;;;;14.65;8.98;;;;;;;19.32;56.00;100067.53;5070643;28;20044;-85
2021/06/25 01:33:34;;;;;;;9.05;8.15;;;;;;;19.32;56.15;100065.69;5071710;28;20046;-85
2021/06/25 01:36:00;;;;;;;9.75;7.95;;;;;;;19.34;55.91;100069.09;5071763;28;20118;-86
2021/06/25 01:38:27;;;;;;;10.30;8.43;;;;;;;19.33;56.49;100064.69;5071757;28;20059;-85
2021/06/25 01:40:54;;;;;;;9.63;8.35;;;;;;;19.35;56.41;100067.25;5071777;28;20053;-86
2021/06/25 01:43:24;;;;;;;8.95;8.05;;;;;;;19.34;56.54;100066.41;5071439;28;20052;-84
2021/06/25 01:45:51;;;;;;;10.50;8.18;;;;;;;19.36;56.21;100061.75;5070540;28;20052;-85
2021/06/25 01:48:18;;;;;;;9.63;8.52;;;;;;;19.37;56.13;100067.97;5071608;28;20056;-86
2021/06/25 01:50:45;;;;;;;10.68;9.07;;;;;;;19.37;56.19;100071.44;5071872;28;20711;-87
2021/06/25 01:53:17;;;;;;;10.02;8.65;;;;;;;19.35;56.75;100069.91;5070625;28;20048;-87
2021/06/25 01:55:45;;;;;;;9.48;8.50;;;;;;;19.37;56.57;100070.63;5073323;28;20455;-85
2021/06/25 01:58:16;;;;;;;8.60;7.80;;;;;;;19.36;56.39;100069.78;5075522;28;20056;-88
2021/06/25 02:01:10;;;;;;;9.82;8.68;;;;;;;19.32;56.57;100062.19;5074811;28;20059;-84
2021/06/25 02:03:38;;;;;;;12.93;7.93;;;;;;;19.36;56.68;100067.09;5071147;28;20421;-86
2021/06/25 02:06:06;;;;;;;8.95;8.05;;;;;;;19.34;56.53;100063.75;5075338;28;20044;-87
2021/06/25 02:08:33;;;;;;;10.07;7.68;;;;;;;19.34;56.63;100063.75;5075145;28;20490;-85
2021/06/25 02:11:01;;;;;;;9.63;8.63;;;;;;;19.34;57.03;100057.56;5075616;28;20060;-85
2021/06/25 02:13:28;;;;;;;9.80;8.82;;;;;;;19.34;57.01;100055.72;5074081;28;20044;-84
2021/06/25 02:15:54;;;;;;;8.63;7.78;;;;;;;19.32;56.63;100051.53;5075268;28;20060;-88
2021/06/25 02:18:21;;;;;;;11.93;8.85;;;;;;;19.31;57.14;100048.00;5075315;28;20129;-85
2021/06/25 02:20:47;;;;;;;8.57;7.47;;;;;;;19.32;56.57;100046.19;5075126;28;20045;-88
2021/06/25 02:23:14;;;;;;;8.48;7.47;;;;;;;19.32;56.79;100051.53;5075433;28;20444;-88
2021/06/25 02:25:41;;;;;;;10.77;8.10;;;;;;;19.31;56.69;100053.34;5074985;28;20048;-85
2021/06/25 02:28:08;;;;;;;8.73;7.85;;;;;;;19.32;56.63;100043.50;5075288;28;20060;-87
2021/06/25 02:30:35;;;;;;;10.57;9.48;;;;;;;19.30;57.20;100043.66;5074124;28;20056;-88
2021/06/25 02:33:01;;;;;;;9.73;8.73;;;;;;;19.29;56.94;100035.78;5075069;28;20045;-88
2021/06/25 02:35:28;;;;;;;13.95;9.32;;;;;;;19.28;57.06;100034.91;5074496;28;20052;-87
2021/06/25 02:37:55;;;;;;;9.00;8.10;;;;;;;19.27;56.79;100034.09;5073279;28;20056;-85
2021/06/25 02:40:23;;;;;;;12.48;9.27;;;;;;;19.27;57.46;100036.75;5072914;28;20498;-85
2021/06/25 02:42:50;;;;;;;8.93;8.02;;;;;;;19.25;56.87;100030.69;5073625;28;20045;-86
2021/06/25 02:45:17;;;;;;;11.13;9.32;;;;;;;19.25;57.07;100029.88;5073044;28;20093;-86
2021/06/25 02:47:45;;;;;;;10.57;8.30;;;;;;;19.22;57.51;100030.97;5074710;28;20463;-88
2021/06/25 02:50:13;;;;;;;13.45;9.13;;;;;;;19.22;57.12;100035.47;5073606;28;20071;-88
2021/06/25 02:52:41;;;;;;;9.52;8.60;;;;;;;19.21;57.33;100033.81;5073615;28;20056;-86
2021/06/25 02:55:10;;;;;;;10.82;9.48;;;;;;;19.19;58.04;100027.75;5073108;28;20064;-86
2021/06/25 02:57:36;;;;;;;8.98;8.07;;;;;;;19.18;57.82;100032.25;5074580;28;20052;-88
2021/06/25 03:00:10;;;;;;;11.55;9.23;;;;;;;19.15;58.39;100016.50;5074291;28;20106;-88
2021/06/25 03:02:37;;;;;;;15.30;9.98;;;;;;;19.18;57.68;100023.38;5073114;28;20101;-88
2021/06/25 03:05:06;;;;;;;10.70;9.60;;;;;;;19.17;58.17;100011.03;5073648;28;20049;-87
2021/06/25 03:07:32;;;;;;;12.07;9.93;;;;;;;19.17;58.06;100011.84;5073187;28;20057;-86
2021/06/25 03:09:59;;;;;;;10.27;9.27;;;;;;;19.18;58.18;100007.38;5073054;28;20053;-87
2021/06/25 03:12:26;;;;;;;13.57;10.57;;;;;;;19.17;58.30;100009.19;5074185;28;20097;-87
2021/06/25 03:14:53;;;;;;;13.60;10.35;;;;;;;19.16;58.22;100004.00;5072982;28;20052;-88
2021/06/25 03:17:20;;;;;;;14.63;10.00;;;;;;;19.14;58.24;100006.81;5074090;28;20585;-86
2021/06/25 03:19:46;;;;;;;10.65;9.55;;;;;;;19.12;58.20;100009.63;5073003;28;20056;-85
2021/06/25 03:22:13;;;;;;;10.27;9.00;;;;;;;19.11;58.08;100007.09;5072995;28;20052;-86
2021/06/25 03:24:40;;;;;;;9.85;8.40;;;;;;;19.06;58.06;100002.16;5073978;28;20056;-86
2021/06/25 03:27:06;;;;;;;9.70;8.35;;;;;;;19.02;57.71;100009.56;5074121;28;20060;-88
2021/06/25 03:29:33;;;;;;;10.23;9.05;;;;;;;18.99;58.03;100011.66;5073741;28;20094;-84
2021/06/25 03:32:00;;;;;;;11.57;8.98;;;;;;;18.93;58.04;100010.38;5073741;28;20048;-85
2021/06/25 03:34:27;;;;;;;12.93;9.82;;;;;;;18.87;58.03;100000.25;5072290;28;20110;-87
2021/06/25 03:36:54;;;;;;;10.20;9.15;;;;;;;18.81;58.12;100000.78;5072991;28;20122;-86
2021/06/25 03:39:20;;;;;;;11.52;9.52;;;;;;;18.73;58.05;99990.81;5073692;28;20053;-87
2021/06/25 03:41:47;;;;;;;11.85;10.70;;;;;;;18.68;58.33;99996.53;5074126;28;20057;-87
2021/06/25 03:44:14;;;;;;;13.55;11.32;;;;;;;18.64;58.96;99994.28;5072519;28;20102;-85
2021/06/25 03:46:40;;;;;;;12.02;10.73;;;;;;;18.60;59.10;99989.22;5072578;28;20051;-85
2021/06/25 03:49:07;;;;;;;10.55;9.45;;;;;;;18.57;58.59;99992.13;5073371;28;20514;-85
2021/06/25 03:51:34;;;;;;;10.70;9.65;;;;;;;18.56;58.80;99994.94;5072247;28;20105;-85
2021/06/25 03:54:02;;;;;;;11.50;10.43;;;;;;;18.54;58.92;99991.56;5073570;28;20106;-85
2021/06/25 03:56:29;;;;;;;11.63;10.23;;;;;;;18.51;58.78;100000.69;5073610;28;20049;-87
2021/06/25 03:58:56;;;;;;;11.63;10.45;;;;;;;18.48;58.83;99991.13;5073403;28;20055;-88
2021/06/25 04:01:23;;;;;;;11.23;10.05;;;;;;;18.46;58.87;99992.22;5072089;28;20071;-85
2021/06/25 04:03:49;;;;;;;10.52;9.48;;;;;;;18.42;58.93;99982.81;5072518;28;20075;-86
2021/06/25 04:06:16;;;;;;;18.25;11.20;;;;;;;18.39;58.99;99991.09;5072284;28;20048;-86
2021/06/25 04:08:45;;;;;;;10.70;9.60;;;;;;;18.34;59.05;99984.31;5073233;28;20086;-87
2021/06/25 04:11:11;;;;;;;13.25;11.73;;;;;;;18.32;59.02;99986.28;5073165;28;20048;-89
2021/06/25 04:13:38;;;;;;;12.77;11.32;;;;;;;18.29;59.07;99980.38;5071829;28;20066;-85
2021/06/25 04:16:05;;;;;;;12.30;11.10;;;;;;;18.26;59.18;99981.47;5072836;28;20102;-86
2021/06/25 04:18:31;;;;;;;11.75;10.57;;;;;;;18.25;59.31;99976.28;5072607;28;20052;-85
2021/06/25 04:20:58;;;;;;;11.00;9.88;;;;;;;18.24;59.61;99983.41;5073056;28;20048;-87
2021/06/25 04:23:25;;;;;;;13.93;12.48;;;;;;;18.23;59.90;99981.75;5073169;28;20410;-88
2021/06/25 04:25:52;;;;;;;12.68;11.43;;;;;;;18.23;59.92;99981.75;5072870;28;20398;-87
2021/06/25 04:28:20;;;;;;;14.30;11.55;;;;;;;18.22;60.17;99980.91;5072967;28;20052;-86
2021/06/25 04:30:47;;;;;;;12.82;11.30;;;;;;;18.25;59.96;99981.59;5072993;28;20056;-87
2021/06/25 04:33:14;;;;;;;13.77;12.30;;;;;;;18.26;60.22;99989.47;5072610;28;20122;-87
2021/06/25 04:35:42;;;;;;;13.27;11.88;;;;;;;18.28;60.16;99978.69;5071698;28;20063;-88
2021/06/25 04:38:10;;;;;;;14.98;11.43;;;;;;;18.31;60.27;99978.41;5071679;28;20052;-88
2021/06/25 04:40:39;;;;;;;13.50;12.10;;;;;;;18.32;60.15;99980.13;5070877;28;20453;-87
2021/06/25 04:43:07;;;;;;;12.75;11.45;;;;;;;18.34;60.08;99984.31;5072937;28;20048;-85
2021/06/25 04:45:35;;;;;;;13.30;11.77;;;;;;;18.36;60.20;99977.03;5072535;28;20059;-87
2021/06/25 04:48:04;;;;;;;15.90;11.80;;;;;;;18.39;60.27;99985.75;5071393;28;20780;-87
2021/06/25 04:50:32;;;;;;;13.27;11.10;;;;;;;18.42;59.68;99982.81;5072639;28;20390;-88
2021/06/25 04:52:59;;;;;;;12.80;11.45;;;;;;;18.46;59.72;99986.88;5070987;28;20485;-87
2021/06/25 04:55:26;;;;;;;12.35;11.10;;;;;;;18.47;59.69;99991.25;5072354;28;20056;-87
2021/06/25 04:57:54;;;;;;;11.90;10.70;;;;;;;18.48;59.67;99990.28;5071552;28;20060;-86
2021/06/25 05:00:23;;;;;;;12.30;11.00;;;;;;;18.49;59.43;99989.28;5071015;28;20056;-87
2021/06/25 05:02:50;;;;;;;11.02;10.00;;;;;;;18.51;59.04;99989.16;5072880;28;20466;-87
2021/06/25 05:05:17;;;;;;;14.25;10.73;;;;;;;18.52;59.10;99986.38;5072145;28;20048;-86
2021/06/25 05:07:44;;;;;;;12.27;11.05;;;;;;;18.53;59.01;99984.53;5072145;28;20059;-88
2021/06/25 05:10:11;;;;;;;11.40;10.23;;;;;;;18.54;58.59;99984.41;5072860;28;20055;-87
2021/06/25 05:12:38;;;;;;;17.55;10.00;;;;;;;18.54;58.87;99980.91;5071173;28;20052;-86
2021/06/25 05:15:06;;;;;;;11.60;10.38;;;;;;;18.55;58.53;99985.25;5071986;28;20044;-86
2021/06/25 05:17:33;;;;;;;11.10;9.50;;;;;;;18.55;58.21;99983.44;5070894;28;20052;-85
2021/06/25 05:20:00;;;;;;;9.65;8.63;;;;;;;18.57;58.31;99977.94;5072292;28;20052;-86
2021/06/25 05:22:27;;;;;;;10.30;9.30;;;;;;;18.57;58.39;99985.94;5071775;28;20063;-86
2021/06/25 05:24:54;;;;;;;10.90;9.07;;;;;;;18.59;57.95;99992.00;5070452;28;20051;-87
2021/06/25 05:27:21;;;;;;;13.00;9.88;;;;;;;18.59;58.27;99989.34;5070834;28;20048;-86
2021/06/25 05:29:48;;;;;;;11.05;9.95;;;;;;;18.60;58.29;99989.22;5070668;28;20056;-86
2021/06/25 05:32:14;;;;;;;11.85;9.23;;;;;;;18.62;58.10;99989.09;5070524;28;20052;-86
2021/06/25 05:34:41;;;;;;;11.93;9.73;;;;;;;18.62;58.24;99989.91;5071609;28;20088;-86
2021/06/25 05:37:07;;;;;;;12.45;9.63;;;;;;;18.65;58.30;99996.78;5071597;28;20059;-86
2021/06/25 05:39:34;;;;;;;11.85;9.32;;;;;;;18.66;58.07;100000.31;5071872;28;20048;-89
2021/06/25 05:42:01;;;;;;;12.65;9.95;;;;;;;18.67;58.10;100008.19;5072115;28;20437;-89
2021/06/25 05:44:27;;;;;;;14.10;9.80;;;;;;;18.69;58.30;100006.22;5070372;28;20089;-90
2021/06/25 05:46:54;;;;;;;11.68;9.45;;;;;;;18.70;58.20;100013.25;5071830;28;20048;-89
2021/06/25 05:49:20;;;;;;;11.77;9.57;;;;;;;18.72;58.13;100003.28;5071753;28;20497;-89
2021/06/25 05:51:49;;;;;;;13.23;9.80;;;;;;;18.75;58.43;100010.16;5069457;28;20059;-89
2021/06/25 05:54:17;;;;;;;11.10;10.00;;;;;;;18.78;58.27;100014.38;5069649;28;20064;-90
2021/06/25 05:56:43;;;;;;;14.82;9.77;;;;;;;18.81;58.16;100009.66;5073697;28;20048;-87
2021/06/25 05:59:10;;;;;;;13.15;9.80;;;;;;;18.83;58.19;100009.47;5070961;28;20048;-86
2021/06/25 06:01:37;;;;;;;12.23;10.75;;;;;;;18.87;58.08;100014.44;5071638;28;20121;-86
2021/06/25 06:04:03;;;;;;;11.45;9.77;;;;;;;18.89;58.24;100007.13;5071238;28;20045;-89
2021/06/25 06:06:30;;;;;;;13.93;10.20;;;;;;;18.93;58.11;100014.84;5071442;28;20110;-90
2021/06/25 06:08:57;;;;;;;11.82;9.82;;;;;;;18.96;57.72;100010.13;5071553;28;20506;-87
2021/06/25 06:11:24;;;;;;;14.05;10.35;;;;;;;18.99;57.67;100006.34;5070847;28;20406;-86
2021/06/25 06:13:50;;;;;;;12.25;10.95;;;;;;;19.01;57.73;100001.69;5071525;28;20048;-89
2021/06/25 06:16:17;;;;;;;13.23;11.23;;;;;;;19.06;58.01;100010.16;5071801;28;20068;-90
2021/06/25 06:18:45;;;;;;;13.18;10.73;;;;;;;19.10;58.02;100011.56;5069809;28;20055;-88
2021/06/25 06:21:14;;;;;;;13.30;11.07;;;;;;;19.18;58.30;100012.72;5072418;28;20053;-89
2021/06/25 06:32:19;;;;;;;14.00;12.50;;;;;;;19.40;57.33;100019.66;5071846;28;20056;-88
2021/06/25 06:34:48;;;;;;;13.30;12.00;;;;;;;19.44;57.47;100017.53;5072011;28;20565;-88
2021/06/25 06:37:18;;;;;;;13.48;12.07;;;;;;;19.47;57.28;100009.25;5071734;28;20517;-87
2021/06/25 06:39:44;;;;;;;13.65;12.25;;;;;;;19.52;57.58;100013.16;5071563;28;20056;-86
2021/06/25 06:42:11;;;;;;;12.13;10.30;;;;;;;19.59;57.46;100015.28;5075107;28;20052;-87
2021/06/25 06:44:38;;;;;;;15.20;13.27;;;;;;;19.67;57.73;100020.78;5073430;28;20055;-87
2021/06/25 06:47:04;;;;;;;15.45;12.48;;;;;;;19.78;57.77;100019.78;5074881;28;20045;-87
2021/06/25 06:49:31;;;;;;;13.15;11.88;;;;;;;19.87;57.31;100021.63;5074907;28;20048;-88
2021/06/25 06:51:57;;;;;;;13.35;11.80;;;;;;;19.95;56.81;100023.56;5073592;28;20053;-87
2021/06/25 06:54:24;;;;;;;13.35;11.95;;;;;;;20.02;56.39;100027.41;5074558;28;20098;-87
2021/06/25 06:56:51;;;;;;;14.30;11.18;;;;;;;20.05;56.92;100026.25;5073776;28;20048;-87
2021/06/25 06:59:17;;;;;;;13.07;11.77;;;;;;;20.07;56.16;100032.28;5075100;28;20056;-87
2021/06/25 07:01:44;;;;;;;15.23;12.07;;;;;;;20.08;55.98;100031.34;5075386;28;20048;-87
2021/06/25 07:04:27;;;;;;;11.48;10.32;;;;;;;20.12;56.19;100035.41;5074007;28;20059;-88
2021/06/25 07:06:54;;;;;;;13.25;11.68;;;;;;;20.16;55.80;100028.78;5077337;28;20053;-89
2021/06/25 07:09:20;;;;;;;15.13;11.40;;;;;;;20.19;55.67;100033.00;5074447;28;20495;-88
2021/06/25 07:11:47;;;;;;;12.50;10.68;;;;;;;20.22;55.40;100032.69;5074721;28;20064;-88
2021/06/25 07:14:14;;;;;;;11.10;10.00;;;;;;;20.24;54.86;100027.19;5073853;28;20075;-87
2021/06/25 07:16:40;;;;;;;11.38;8.73;;;;;;;20.25;54.80;100027.06;5074435;28;20064;-88
2021/06/25 07:19:07;;;;;;;12.27;9.50;;;;;;;20.25;54.77;100037.75;5075411;28;20087;-89
2021/06/25 07:21:34;;;;;;;11.40;9.30;;;;;;;20.25;54.29;100040.44;5076444;28;20048;-89
2021/06/25 07:24:02;;;;;;;10.45;9.48;;;;;;;20.25;54.30;100039.56;5073170;28;20052;-87
2021/06/25 07:26:29;;;;;;;10.43;9.25;;;;;;;20.25;53.55;100047.59;5075485;28;20080;-88
2021/06/25 07:28:55;;;;;;;10.90;9.40;;;;;;;20.24;52.73;100035.22;5073338;28;20599;-87
2021/06/25 07:31:22;;;;;;;10.70;9.20;;;;;;;20.25;54.08;100036.91;5074569;28;20521;-87
2021/06/25 07:33:49;;;;;;;10.10;8.77;;;;;;;20.27;53.92;100027.78;5074010;28;20102;-89
2021/06/25 07:36:20;;;;;;;11.15;8.50;;;;;;;20.28;52.93;100034.81;5073977;28;20045;-89
2021/06/25 07:38:46;;;;;;;10.02;8.45;;;;;;;20.34;53.62;100038.75;5074318;28;20048;-87
2021/06/25 07:41:13;;;;;;;8.98;8.15;;;;;;;20.38;53.55;100028.59;5072419;28;20056;-90
2021/06/25 07:43:39;;;;;;;8.90;8.02;;;;;;;20.42;52.97;100036.16;5073628;28;20098;-87
2021/06/25 07:46:06;;;;;;;9.63;8.00;;;;;;;20.46;52.37;100028.72;5072606;28;20056;-87
2021/06/25 07:48:33;;;;;;;9.43;8.48;;;;;;;20.51;53.02;100031.78;5075056;28;20048;-89
2021/06/25 07:50:59;;;;;;;7.72;7.03;;;;;;;20.55;52.21;100026.97;5074288;28;20127;-89
2021/06/25 07:53:26;;;;;;;9.38;8.32;;;;;;;20.60;51.05;100026.53;5073091;28;20044;-89
2021/06/25 07:55:53;;;;;;;7.35;6.65;;;;;;;20.65;50.84;100027.78;5072721;28;20056;-87
2021/06/25 07:58:20;;;;;;;8.50;7.15;;;;;;;20.72;51.38;100022.69;5073786;28;20048;-88
2021/06/25 08:00:47;;;;;;;7.28;6.03;;;;;;;20.79;50.10;100023.78;5073324;28;20062;-87
2021/06/25 08:03:14;;;;;;;8.35;7.50;;;;;;;20.86;49.96;100020.53;5072278;28;20429;-87
2021/06/25 08:05:41;;;;;;;7.45;6.65;;;;;;;20.92;49.79;100018.13;5072109;28;20048;-87
2021/06/25 08:08:07;;;;;;;8.23;7.18;;;;;;;21.00;49.75;100005.84;5072035;28;20056;-86
2021/06/25 08:10:35;;;;;;;9.40;7.55;;;;;;;21.09;48.83;100005.75;5071929;28;20048;-87
2021/06/25 08:13:03;;;;;;;6.70;6.10;;;;;;;21.18;48.22;100003.19;5072242;28;20052;-86
2021/06/25 08:15:29;;;;;;;6.55;5.95;;;;;;;21.27;48.05;100009.47;5072805;28;20059;-87
2021/06/25 08:17:56;;;;;;;8.77;6.68;;;;;;;21.36;48.64;99997.84;5073393;28;20052;-90
2021/06/25 08:20:23;;;;;;;6.40;5.80;;;;;;;21.47;47.98;100004.81;5073520;28;20048;-88
2021/06/25 08:22:50;;;;;;;6.10;5.50;;;;;;;21.57;46.65;100002.91;5073285;28;20051;-86
2021/06/25 08:25:17;;;;;;;7.30;4.97;;;;;;;21.67;46.50;100005.50;5073081;28;20051;-88
2021/06/25 08:27:43;;;;;;;5.93;4.90;;;;;;;21.78;46.24;99999.09;5072064;28;20422;-88
2021/06/25 08:30:11;;;;;;;7.03;5.53;;;;;;;21.87;46.12;100005.38;5072153;28;20409;-89
2021/06/25 08:32:38;;;;;;;8.85;5.97;;;;;;;21.94;46.06;100003.72;5071487;28;20060;-90
2021/06/25 08:35:06;;;;;;;9.27;5.93;;;;;;;22.00;46.04;100005.81;5072772;28;20126;-89
2021/06/25 08:37:33;;;;;;;9.27;6.15;;;;;;;22.05;44.98;100002.63;5072881;28;20048;-89
2021/06/25 08:40:00;;;;;;;6.07;4.70;;;;;;;22.10;43.62;99999.50;5072563;28;20070;-89
2021/06/25 08:42:27;;;;;;;4.57;4.18;;;;;;;22.14;44.39;99998.19;5073109;28;20049;-89
2021/06/25 08:44:53;;;;;;;6.00;5.30;;;;;;;22.20;43.56;100002.06;5072378;28;20048;-88
2021/06/25 08:47:26;;;;;;;4.65;4.25;;;;;;;22.20;40.35;100005.59;5073637;28;20052;-90
2021/06/25 08:50:03;;;;;;;4.50;4.05;;;;;;;22.27;42.04;99997.75;5072943;28;20132;-87
2021/06/25 08:52:30;;;;;;;4.70;3.50;;;;;;;22.30;43.03;100007.31;5071590;28;20425;-86
2021/06/25 08:54:56;;;;;;;5.35;4.07;;;;;;;22.31;42.21;100004.47;5071342;28;20468;-89
2021/06/25 08:57:23;;;;;;;6.13;3.80;;;;;;;22.33;42.12;100004.31;5071893;28;20059;-86
2021/06/25 08:59:51;;;;;;;4.00;3.58;;;;;;;22.33;40.49;99998.97;5072417;28;20044;-87
2021/06/25 09:02:18;;;;;;;3.30;3.00;;;;;;;22.33;41.40;100009.69;5072777;28;20056;-87
2021/06/25 09:04:47;;;;;;;4.78;3.70;;;;;;;22.36;41.88;100007.53;5072314;28;20055;-87
2021/06/25 09:07:13;;;;;;;3.20;2.90;;;;;;;22.41;41.10;100016.94;5072741;28;20091;-87
2021/06/25 09:09:45;;;;;;;4.57;2.90;;;;;;;22.45;42.02;100005.75;5071518;28;20060;-87
2021/06/25 09:12:23;;;;;;;5.53;3.60;;;;;;;22.54;40.93;100008.47;5072164;28;20064;-89
2021/06/25 09:14:57;;;;;;;4.03;3.58;;;;;;;22.62;40.79;100006.69;5071453;28;20083;-87
2021/06/25 09:17:24;;;;;;;3.97;3.63;;;;;;;22.72;40.84;100001.19;5071954;28;20055;-88
2021/06/25 09:19:51;;;;;;;4.65;3.85;;;;;;;22.80;40.07;99999.56;5071690;28;20455;-87
2021/06/25 09:22:18;;;;;;;7.15;4.05;;;;;;;22.81;39.34;100001.22;5071989;28;20056;-87
2021/06/25 09:24:58;;;;;;;4.65;4.25;;;;;;;22.77;38.76;100001.53;5072270;28;20048;-87
2021/06/25 09:27:26;;;;;;;3.85;3.47;;;;;;;22.85;39.75;100000.75;5072951;28;20056;-88
2021/06/25 09:29:53;;;;;;;8.23;4.15;;;;;;;22.89;40.18;99998.59;5072414;28;20055;-89
2021/06/25 09:32:20;;;;;;;6.15;4.30;;;;;;;22.93;39.64;99985.66;5070977;28;20056;-87
2021/06/25 09:34:51;;;;;;;5.10;4.35;;;;;;;22.96;39.17;99991.56;5067938;28;20053;-88
2021/06/25 09:37:19;;;;;;;4.72;3.80;;;;;;;22.99;39.31;99999.28;5071162;28;20448;-88
2021/06/25 09:40:01;;;;;;;5.10;4.60;;;;;;;22.97;38.36;99995.94;5072613;28;20493;-87
2021/06/25 09:42:27;;;;;;;5.13;4.00;;;;;;;23.03;38.11;100006.00;5072127;28;20052;-89
2021/06/25 09:45:03;;;;;;;5.13;4.03;;;;;;;23.01;38.06;100007.16;5071705;28;20490;-88
2021/06/25 09:47:33;;;;;;;5.22;3.20;;;;;;;23.05;38.44;100003.16;5072078;28;20056;-86
2021/06/25 09:50:15;;;;;;;4.15;2.92;;;;;;;23.12;38.32;100006.88;5071710;28;20059;-87
2021/06/25 09:52:53;;;;;;;5.80;3.65;;;;;;;23.21;34.57;100012.28;5072091;28;20052;-90
2021/06/25 09:55:31;;;;;;;3.47;2.47;;;;;;;23.28;36.21;100003.38;5071212;28;20098;-89
2021/06/25 10:03:49;;;;;;;2.45;2.05;;;;;;;23.40;35.47;100000.41;5064997;28;20052;-88
2021/06/25 10:06:21;;;;;;;2.45;1.85;;;;;;;23.49;35.49;100014.69;5059556;28;20052;-89
2021/06/25 10:08:49;;;;;;;1.95;1.73;;;;;;;23.55;35.90;100012.19;5071725;28;20056;-89
2021/06/25 10:11:18;;;;;;;3.05;2.13;;;;;;;23.63;35.73;100013.19;5070272;28;20053;-88
2021/06/25 10:13:47;;;;;;;1.88;1.52;;;;;;;23.71;33.39;100013.19;5071705;28;20045;-88
2021/06/25 10:16:15;;;;;;;1.30;1.08;;;;;;;23.77;34.53;100015.22;5074117;28;20055;-87
2021/06/25 10:18:44;;;;;;;0.90;0.90;;;;;;;23.82;33.25;100028.97;5074430;28;20048;-88
2021/06/25 10:21:13;;;;;;;1.30;1.20;;;;;;;23.86;33.04;100018.75;5074340;28;20052;-89
2021/06/25 10:23:46;;;;;;;1.38;1.27;;;;;;;23.86;32.99;100016.06;5073789;28;20060;-89
2021/06/25 10:26:14;;;;;;;1.20;1.05;;;;;;;23.92;33.24;100019.94;5074119;28;20053;-86
2021/06/25 10:28:43;;;;;;;3.17;1.58;;;;;;;23.97;33.38;100011.34;5073940;28;20048;-88
2021/06/25 10:31:12;;;;;;;2.25;1.75;;;;;;;24.01;33.08;100012.69;5074274;28;20077;-87
2021/06/25 10:33:39;;;;;;;2.33;1.90;;;;;;;24.07;34.04;100006.63;5075017;28;20045;-89
2021/06/25 10:36:10;;;;;;;2.00;1.73;;;;;;;24.12;33.27;100003.44;5073572;28;20060;-87
2021/06/25 10:38:39;;;;;;;1.95;1.75;;;;;;;24.19;34.66;100007.16;5073755;28;20060;-88
2021/06/25 10:41:07;;;;;;;2.90;1.95;;;;;;;24.27;34.46;100004.44;5074880;28;20063;-87
2021/06/25 10:43:45;;;;;;;2.40;2.10;;;;;;;24.39;34.29;100004.06;5073709;28;20048;-88
2021/06/25 10:46:34;;;;;;;2.17;1.95;;;;;;;24.61;35.36;99997.09;5074568;28;20056;-89
2021/06/25 10:49:14;;;;;;;2.17;1.95;;;;;;;24.93;36.08;99999.88;5075095;28;20076;-88
2021/06/25 10:51:45;;;;;;;2.90;2.35;;;;;;;25.31;34.44;99991.88;5074547;28;20059;-89
2021/06/25 10:54:14;;;;;;;3.10;2.28;;;;;;;25.77;35.77;99998.31;5073036;28;20118;-90
2021/06/25 10:56:40;;;;;;;2.75;2.45;;;;;;;26.25;35.54;99997.19;5074550;28;20049;-90
2021/06/25 10:59:27;;;;;;;3.25;2.80;;;;;;;26.76;35.38;99993.75;5074725;28;20056;-90
2021/06/25 11:01:57;;;;;;;2.53;1.90;;;;;;;27.37;35.92;99988.19;5074859;28;20055;-90
2021/06/25 11:04:30;;;;;;;2.13;1.83;;;;;;;27.87;33.97;99982.84;5073577;28;20044;-90
2021/06/25 11:06:58;;;;;;;2.40;1.70;;;;;;;28.35;35.32;99987.56;5074633;28;20052;-88
2021/06/25 11:09:31;;;;;;;2.55;1.83;;;;;;;28.78;34.04;99982.94;5073142;28;20059;-87
2021/06/25 11:12:16;;;;;;;3.05;2.35;;;;;;;29.20;33.57;99980.22;5074829;28;20060;-90
2021/06/25 11:14:42;;;;;;;2.65;2.20;;;;;;;29.63;33.10;99973.59;5073752;28;20055;-87
2021/06/25 11:17:09;;;;;;;2.90;2.13;;;;;;;29.98;33.39;99980.66;5074404;28;20052;-87
2021/06/25 11:19:38;;;;;;;2.78;2.03;;;;;;;30.26;32.49;99974.16;5073118;28;20485;-90
2021/06/25 11:22:39;;;;;;;2.30;2.10;;;;;;;30.51;32.83;99973.47;5072516;28;20049;-91
2021/06/25 11:25:13;;;;;;;5.32;2.20;;;;;;;30.81;32.96;99972.97;5073885;28;20055;-91
2021/06/25 11:28:13;;;;;;;3.20;2.65;;;;;;;30.97;31.68;99976.22;5072836;28;20100;-89
2021/06/25 11:30:54;;;;;;;2.60;2.40;;;;;;;31.15;32.05;99975.47;5073866;28;20056;-87
2021/06/25 11:33:36;;;;;;;2.50;2.30;;;;;;;31.29;30.88;99969.97;5073952;28;20045;-90
2021/06/25 11:36:23;;;;;;;3.60;3.30;;;;;;;31.37;30.60;99958.00;5073528;28;20414;-90
2021/06/25 11:38:56;;;;;;;8.13;2.75;;;;;;;31.41;30.81;99964.66;5074030;28;20058;-90
2021/06/25 11:41:25;;;;;;;3.22;2.92;;;;;;;31.38;31.02;99960.50;5073442;28;20056;-88